WZZ142 EPWA-LICA
Flight info
| Callsign | WZZ142 |
|---|---|
| Flight time | 2h 6m |
| Altitude | 36000 |
| Route | EVINA DCT LIGDI DCT SKARY DCT VADEX DCT ZOLKU DCT OLATI DCT KOPRY DCT VAPUP/N0436F370 DCT BEDPI DCT EVINO/N0336F190 M620 ARBUM |
| Aircraft | A21N/M-SDE2E3FGHIRWXY/LB1 |
Departure
| Time | 2026-04-23 11:46 |
|---|---|
| Airport | Warsaw Chopin Airport (EPWA) |
Arrival
| Time | 2026-04-23 13:52 |
|---|---|
| Airport | Lamezia Terme Sant'Eufemia International Airport (LICA) |
| Time | Latitude | Longitude | Altitude | Speed | Heading |
|---|---|---|---|---|---|
| 2026-04-23 11:35 | 52.16941 | 20.96901 | 351 ft | 0 kts | 276° |
| 2026-04-23 11:42 | 52.16941 | 20.96896 | 350 ft | 3 kts | 274° |
| 2026-04-23 11:42 | 52.16936 | 20.96833 | 346 ft | 8 kts | 242° |
| 2026-04-23 11:42 | 52.16894 | 20.96831 | 343 ft | 8 kts | 153° |
| 2026-04-23 11:42 | 52.16823 | 20.96892 | 344 ft | 15 kts | 152° |
| 2026-04-23 11:43 | 52.16710 | 20.96990 | 345 ft | 22 kts | 152° |
| 2026-04-23 11:43 | 52.16578 | 20.97114 | 337 ft | 23 kts | 161° |
| 2026-04-23 11:43 | 52.16429 | 20.97247 | 336 ft | 25 kts | 133° |
| 2026-04-23 11:43 | 52.16355 | 20.97503 | 346 ft | 27 kts | 115° |
| 2026-04-23 11:44 | 52.16268 | 20.97811 | 350 ft | 31 kts | 104° |
| 2026-04-23 11:44 | 52.16228 | 20.97972 | 336 ft | 5 kts | 174° |
| 2026-04-23 11:44 | 52.16218 | 20.97956 | 337 ft | 1 kts | 274° |
| 2026-04-23 11:44 | 52.16228 | 20.97937 | 335 ft | 5 kts | 307° |
| 2026-04-23 11:45 | 52.16252 | 20.97864 | 348 ft | 15 kts | 294° |
| 2026-04-23 11:45 | 52.16321 | 20.97621 | 338 ft | 55 kts | 295° |
| 2026-04-23 11:45 | 52.16563 | 20.96754 | 346 ft | 116 kts | 295° |
| 2026-04-23 11:45 | 52.16952 | 20.95339 | 576 ft | 144 kts | 297° |
| 2026-04-23 11:46 | 52.17358 | 20.93810 | 1162 ft | 148 kts | 298° |
| 2026-04-23 11:46 | 52.17792 | 20.92250 | 1791 ft | 148 kts | 301° |
| 2026-04-23 11:46 | 52.18140 | 20.90627 | 2397 ft | 166 kts | 284° |
| 2026-04-23 11:46 | 52.18080 | 20.88545 | 2704 ft | 201 kts | 267° |
| 2026-04-23 11:47 | 52.17779 | 20.86162 | 3028 ft | 228 kts | 263° |
| 2026-04-23 11:47 | 52.17410 | 20.83578 | 3590 ft | 238 kts | 263° |
| 2026-04-23 11:47 | 52.17037 | 20.80919 | 4399 ft | 242 kts | 263° |
| 2026-04-23 11:47 | 52.16667 | 20.78230 | 5157 ft | 245 kts | 263° |
| 2026-04-23 11:48 | 52.16297 | 20.75475 | 5734 ft | 257 kts | 263° |
| 2026-04-23 11:48 | 52.15892 | 20.72546 | 6283 ft | 273 kts | 259° |
| 2026-04-23 11:48 | 52.14913 | 20.69805 | 6972 ft | 293 kts | 229° |
| 2026-04-23 11:48 | 52.13329 | 20.67656 | 7826 ft | 299 kts | 221° |
| 2026-04-23 11:49 | 52.11632 | 20.65624 | 8653 ft | 304 kts | 220° |
| 2026-04-23 11:49 | 52.09922 | 20.63570 | 9479 ft | 309 kts | 220° |
| 2026-04-23 11:49 | 52.08190 | 20.61451 | 10255 ft | 315 kts | 221° |
| 2026-04-23 11:49 | 52.06393 | 20.59217 | 10616 ft | 336 kts | 221° |
| 2026-04-23 11:50 | 52.04496 | 20.56838 | 10880 ft | 358 kts | 221° |
| 2026-04-23 11:50 | 52.02466 | 20.54289 | 11346 ft | 373 kts | 221° |
| 2026-04-23 11:50 | 52.00392 | 20.51685 | 12014 ft | 380 kts | 221° |
| 2026-04-23 11:50 | 51.98287 | 20.49047 | 12738 ft | 385 kts | 221° |
| 2026-04-23 11:51 | 51.96118 | 20.46413 | 13440 ft | 393 kts | 216° |
| 2026-04-23 11:51 | 51.93620 | 20.44522 | 14093 ft | 403 kts | 195° |
| 2026-04-23 11:51 | 51.90843 | 20.43767 | 14825 ft | 407 kts | 187° |
| 2026-04-23 11:51 | 51.88007 | 20.43332 | 15553 ft | 409 kts | 185° |
| 2026-04-23 11:52 | 51.85161 | 20.42938 | 16242 ft | 413 kts | 185° |
| 2026-04-23 11:52 | 51.82285 | 20.42532 | 16935 ft | 416 kts | 186° |
| 2026-04-23 11:52 | 51.79392 | 20.42111 | 17618 ft | 419 kts | 186° |
| 2026-04-23 11:52 | 51.76479 | 20.41678 | 18278 ft | 422 kts | 186° |
| 2026-04-23 11:53 | 51.73540 | 20.41237 | 18830 ft | 426 kts | 186° |
| 2026-04-23 11:53 | 51.70584 | 20.40792 | 19391 ft | 428 kts | 186° |
| 2026-04-23 11:53 | 51.67606 | 20.40342 | 19956 ft | 431 kts | 186° |
| 2026-04-23 11:53 | 51.64605 | 20.39889 | 20521 ft | 434 kts | 186° |
| 2026-04-23 11:54 | 51.61556 | 20.39428 | 21082 ft | 436 kts | 186° |
| 2026-04-23 11:54 | 51.58521 | 20.38969 | 21638 ft | 439 kts | 186° |
| 2026-04-23 11:54 | 51.55505 | 20.38514 | 22184 ft | 442 kts | 186° |
| 2026-04-23 11:54 | 51.52438 | 20.38052 | 22716 ft | 444 kts | 186° |
| 2026-04-23 11:55 | 51.49347 | 20.37587 | 23231 ft | 447 kts | 186° |
| 2026-04-23 11:55 | 51.46236 | 20.37119 | 23695 ft | 450 kts | 186° |
| 2026-04-23 11:55 | 51.43116 | 20.36651 | 24132 ft | 451 kts | 185° |
| 2026-04-23 11:55 | 51.39989 | 20.35991 | 24463 ft | 456 kts | 192° |
| 2026-04-23 11:56 | 51.36941 | 20.34556 | 24777 ft | 459 kts | 201° |
| 2026-04-23 11:56 | 51.33976 | 20.32604 | 25097 ft | 463 kts | 205° |
| 2026-04-23 11:56 | 51.31053 | 20.30440 | 25424 ft | 466 kts | 207° |
| 2026-04-23 11:56 | 51.28112 | 20.28152 | 25725 ft | 470 kts | 207° |
| 2026-04-23 11:57 | 51.25166 | 20.25833 | 26034 ft | 474 kts | 207° |
| 2026-04-23 11:57 | 51.22200 | 20.23512 | 26382 ft | 476 kts | 207° |
| 2026-04-23 11:57 | 51.19228 | 20.21216 | 26798 ft | 477 kts | 206° |
| 2026-04-23 11:57 | 51.16218 | 20.18917 | 27073 ft | 480 kts | 206° |
| 2026-04-23 11:58 | 51.13190 | 20.16626 | 27344 ft | 484 kts | 206° |
| 2026-04-23 11:58 | 51.10136 | 20.14329 | 27630 ft | 487 kts | 206° |
| 2026-04-23 11:58 | 51.07058 | 20.12022 | 27898 ft | 491 kts | 206° |
| 2026-04-23 11:58 | 51.03963 | 20.09707 | 28160 ft | 494 kts | 205° |
| 2026-04-23 11:59 | 51.00848 | 20.07380 | 28447 ft | 496 kts | 206° |
| 2026-04-23 11:59 | 50.97730 | 20.05054 | 28862 ft | 495 kts | 205° |
| 2026-04-23 11:59 | 50.94614 | 20.02731 | 29217 ft | 495 kts | 205° |
| 2026-04-23 11:59 | 50.91488 | 20.00403 | 29548 ft | 496 kts | 205° |
| 2026-04-23 12:00 | 50.88359 | 19.98077 | 29864 ft | 497 kts | 205° |
| 2026-04-23 12:00 | 50.85227 | 19.95751 | 30160 ft | 498 kts | 205° |
| 2026-04-23 12:00 | 50.82091 | 19.93425 | 30443 ft | 498 kts | 205° |
| 2026-04-23 12:00 | 50.78948 | 19.91098 | 30759 ft | 497 kts | 205° |
| 2026-04-23 12:01 | 50.75826 | 19.88790 | 31203 ft | 493 kts | 205° |
| 2026-04-23 12:01 | 50.72720 | 19.86498 | 31479 ft | 493 kts | 205° |
| 2026-04-23 12:01 | 50.69611 | 19.84206 | 31698 ft | 494 kts | 205° |
| 2026-04-23 12:01 | 50.66491 | 19.81909 | 31929 ft | 495 kts | 205° |
| 2026-04-23 12:02 | 50.63375 | 19.79619 | 32169 ft | 495 kts | 205° |
| 2026-04-23 12:02 | 50.60251 | 19.77327 | 32404 ft | 495 kts | 205° |
| 2026-04-23 12:02 | 50.57132 | 19.75041 | 32687 ft | 493 kts | 205° |
| 2026-04-23 12:02 | 50.54028 | 19.72770 | 33049 ft | 491 kts | 205° |
| 2026-04-23 12:03 | 50.50934 | 19.70510 | 33253 ft | 491 kts | 205° |
| 2026-04-23 12:03 | 50.47825 | 19.68242 | 33433 ft | 492 kts | 205° |
| 2026-04-23 12:03 | 50.44724 | 19.65983 | 33626 ft | 492 kts | 205° |
| 2026-04-23 12:03 | 50.41619 | 19.63724 | 33832 ft | 492 kts | 205° |
| 2026-04-23 12:04 | 50.38508 | 19.61464 | 34021 ft | 492 kts | 205° |
| 2026-04-23 12:04 | 50.35401 | 19.59210 | 34232 ft | 491 kts | 205° |
| 2026-04-23 12:04 | 50.32320 | 19.56979 | 34548 ft | 487 kts | 205° |
| 2026-04-23 12:04 | 50.29286 | 19.54799 | 34747 ft | 485 kts | 204° |
| 2026-04-23 12:05 | 50.26204 | 19.52645 | 34885 ft | 485 kts | 204° |
| 2026-04-23 12:05 | 50.23115 | 19.50526 | 35017 ft | 486 kts | 203° |
| 2026-04-23 12:05 | 50.20019 | 19.48421 | 35154 ft | 485 kts | 203° |
| 2026-04-23 12:05 | 50.16921 | 19.46320 | 35302 ft | 485 kts | 203° |
| 2026-04-23 12:06 | 50.13834 | 19.44225 | 35491 ft | 483 kts | 203° |
| 2026-04-23 12:06 | 50.10762 | 19.42140 | 35676 ft | 481 kts | 203° |
| 2026-04-23 12:06 | 50.04595 | 19.37951 | 35793 ft | 484 kts | 203° |
| 2026-04-23 12:07 | 49.98400 | 19.33749 | 35934 ft | 486 kts | 203° |
| 2026-04-23 12:07 | 49.92182 | 19.29543 | 36059 ft | 489 kts | 204° |
| 2026-04-23 12:08 | 49.85947 | 19.25338 | 36066 ft | 487 kts | 203° |
| 2026-04-23 12:08 | 49.79730 | 19.21157 | 36070 ft | 487 kts | 203° |
| 2026-04-23 12:09 | 49.73506 | 19.16983 | 36073 ft | 487 kts | 203° |
| 2026-04-23 12:09 | 49.67289 | 19.12825 | 36070 ft | 486 kts | 203° |
| 2026-04-23 12:10 | 49.61082 | 19.08687 | 36067 ft | 486 kts | 203° |
| 2026-04-23 12:10 | 49.54869 | 19.04557 | 36073 ft | 486 kts | 203° |
| 2026-04-23 12:11 | 49.48657 | 19.00439 | 36067 ft | 486 kts | 203° |
| 2026-04-23 12:11 | 49.42349 | 18.96714 | 36070 ft | 486 kts | 198° |
| 2026-04-23 12:12 | 49.35954 | 18.93577 | 36063 ft | 486 kts | 197° |
| 2026-04-23 12:12 | 49.29488 | 18.90531 | 36069 ft | 486 kts | 196° |
| 2026-04-23 12:13 | 49.23116 | 18.87124 | 36071 ft | 484 kts | 202° |
| 2026-04-23 12:13 | 49.16898 | 18.83152 | 36071 ft | 485 kts | 203° |
| 2026-04-23 12:14 | 49.10698 | 18.79070 | 36071 ft | 485 kts | 203° |
| 2026-04-23 12:14 | 49.04511 | 18.74999 | 36069 ft | 485 kts | 203° |
| 2026-04-23 12:15 | 48.98316 | 18.70945 | 36069 ft | 484 kts | 203° |
| 2026-04-23 12:15 | 48.92121 | 18.66912 | 36071 ft | 484 kts | 203° |
| 2026-04-23 12:16 | 48.85926 | 18.62893 | 36075 ft | 483 kts | 203° |
| 2026-04-23 12:16 | 48.79749 | 18.58896 | 36078 ft | 482 kts | 203° |
| 2026-04-23 12:17 | 48.73578 | 18.54915 | 36077 ft | 482 kts | 202° |
| 2026-04-23 12:17 | 48.67408 | 18.50943 | 36081 ft | 482 kts | 202° |
| 2026-04-23 12:18 | 48.61244 | 18.46986 | 36083 ft | 481 kts | 202° |
| 2026-04-23 12:18 | 48.55081 | 18.43040 | 36102 ft | 478 kts | 202° |
| 2026-04-23 12:19 | 48.49004 | 18.39160 | 36088 ft | 473 kts | 202° |
| 2026-04-23 12:19 | 48.42949 | 18.35303 | 36089 ft | 472 kts | 202° |
| 2026-04-23 12:20 | 48.36900 | 18.31462 | 36093 ft | 471 kts | 202° |
| 2026-04-23 12:20 | 48.30901 | 18.27661 | 36095 ft | 471 kts | 202° |
| 2026-04-23 12:21 | 48.24856 | 18.23841 | 36094 ft | 470 kts | 202° |
| 2026-04-23 12:21 | 48.18822 | 18.20037 | 36097 ft | 470 kts | 202° |
| 2026-04-23 12:22 | 48.12803 | 18.16252 | 36099 ft | 470 kts | 202° |
| 2026-04-23 12:22 | 48.06774 | 18.12472 | 36108 ft | 470 kts | 202° |
| 2026-04-23 12:23 | 48.00741 | 18.08697 | 36099 ft | 470 kts | 202° |
| 2026-04-23 12:23 | 47.94718 | 18.04939 | 36103 ft | 470 kts | 202° |
| 2026-04-23 12:24 | 47.88686 | 18.01186 | 36108 ft | 470 kts | 202° |
| 2026-04-23 12:24 | 47.82651 | 17.97439 | 36110 ft | 471 kts | 202° |
| 2026-04-23 12:25 | 47.76591 | 17.93687 | 36111 ft | 471 kts | 202° |
| 2026-04-23 12:25 | 47.70537 | 17.89947 | 36112 ft | 471 kts | 202° |
| 2026-04-23 12:26 | 47.64479 | 17.86215 | 36117 ft | 472 kts | 202° |
| 2026-04-23 12:26 | 47.58402 | 17.82481 | 36116 ft | 472 kts | 202° |
| 2026-04-23 12:27 | 47.53343 | 17.79416 | 36132 ft | 472 kts | 201° |
| 2026-04-23 12:27 | 47.47229 | 17.75846 | 36126 ft | 472 kts | 201° |
| 2026-04-23 12:28 | 47.41111 | 17.72312 | 36130 ft | 472 kts | 201° |
| 2026-04-23 12:28 | 47.34990 | 17.68775 | 36130 ft | 472 kts | 201° |
| 2026-04-23 12:29 | 47.28877 | 17.65241 | 36129 ft | 472 kts | 201° |
| 2026-04-23 12:29 | 47.22754 | 17.61706 | 36128 ft | 473 kts | 201° |
| 2026-04-23 12:30 | 47.16633 | 17.58191 | 36129 ft | 472 kts | 200° |
| 2026-04-23 12:30 | 47.10480 | 17.54654 | 36132 ft | 472 kts | 200° |
| 2026-04-23 12:31 | 47.04355 | 17.51141 | 36126 ft | 471 kts | 200° |
| 2026-04-23 12:31 | 46.98269 | 17.47624 | 36133 ft | 471 kts | 202° |
| 2026-04-23 12:32 | 46.92309 | 17.43617 | 36140 ft | 471 kts | 205° |
| 2026-04-23 12:32 | 46.86432 | 17.39408 | 36146 ft | 471 kts | 205° |
| 2026-04-23 12:33 | 46.80545 | 17.35224 | 36151 ft | 470 kts | 205° |
| 2026-04-23 12:33 | 46.74634 | 17.31088 | 36156 ft | 471 kts | 205° |
| 2026-04-23 12:34 | 46.68721 | 17.26984 | 36158 ft | 471 kts | 205° |
| 2026-04-23 12:34 | 46.62794 | 17.22883 | 36157 ft | 472 kts | 205° |
| 2026-04-23 12:35 | 46.56861 | 17.18787 | 36156 ft | 472 kts | 205° |
| 2026-04-23 12:35 | 46.50931 | 17.14700 | 36154 ft | 472 kts | 205° |
| 2026-04-23 12:36 | 46.44991 | 17.10616 | 36152 ft | 472 kts | 204° |
| 2026-04-23 12:36 | 46.39086 | 17.06566 | 36147 ft | 472 kts | 204° |
| 2026-04-23 12:37 | 46.33139 | 17.02497 | 36150 ft | 472 kts | 204° |
| 2026-04-23 12:37 | 46.27204 | 16.98447 | 36153 ft | 472 kts | 204° |
| 2026-04-23 12:38 | 46.21226 | 16.94531 | 36154 ft | 471 kts | 201° |
| 2026-04-23 12:38 | 46.15150 | 16.90977 | 36157 ft | 471 kts | 200° |
| 2026-04-23 12:39 | 46.09062 | 16.87501 | 36157 ft | 470 kts | 200° |
| 2026-04-23 12:39 | 46.02983 | 16.84002 | 36161 ft | 470 kts | 201° |
| 2026-04-23 12:40 | 45.96916 | 16.80489 | 36161 ft | 470 kts | 201° |
| 2026-04-23 12:40 | 45.90856 | 16.76979 | 36162 ft | 470 kts | 201° |
| 2026-04-23 12:41 | 45.84789 | 16.73473 | 36162 ft | 470 kts | 201° |
| 2026-04-23 12:41 | 45.78722 | 16.69976 | 36161 ft | 470 kts | 200° |
| 2026-04-23 12:42 | 45.72649 | 16.66484 | 36165 ft | 470 kts | 200° |
| 2026-04-23 12:42 | 45.66576 | 16.63002 | 36156 ft | 471 kts | 200° |
| 2026-04-23 12:43 | 45.60487 | 16.59519 | 36163 ft | 471 kts | 200° |
| 2026-04-23 12:43 | 45.54404 | 16.56047 | 36164 ft | 471 kts | 200° |
| 2026-04-23 12:44 | 45.48318 | 16.52581 | 36165 ft | 471 kts | 200° |
| 2026-04-23 12:44 | 45.42221 | 16.49117 | 36165 ft | 471 kts | 200° |
| 2026-04-23 12:45 | 45.36135 | 16.45667 | 36173 ft | 471 kts | 200° |
| 2026-04-23 12:45 | 45.30044 | 16.42222 | 36167 ft | 471 kts | 200° |
| 2026-04-23 12:46 | 45.23958 | 16.38789 | 36168 ft | 471 kts | 200° |
| 2026-04-23 12:46 | 45.17854 | 16.35353 | 36172 ft | 471 kts | 200° |
| 2026-04-23 12:47 | 45.11752 | 16.31925 | 36173 ft | 472 kts | 200° |
| 2026-04-23 12:47 | 45.05648 | 16.28507 | 36174 ft | 472 kts | 200° |
| 2026-04-23 12:48 | 44.99534 | 16.25089 | 36188 ft | 472 kts | 199° |
| 2026-04-23 12:48 | 44.93416 | 16.21677 | 36173 ft | 474 kts | 199° |
| 2026-04-23 12:49 | 44.87280 | 16.18263 | 36172 ft | 474 kts | 199° |
| 2026-04-23 12:49 | 44.81144 | 16.14856 | 36184 ft | 474 kts | 199° |
| 2026-04-23 12:50 | 44.75018 | 16.11463 | 36171 ft | 477 kts | 199° |
| 2026-04-23 12:50 | 44.68835 | 16.08056 | 36169 ft | 477 kts | 199° |
| 2026-04-23 12:51 | 44.62669 | 16.04653 | 36174 ft | 476 kts | 199° |
| 2026-04-23 12:51 | 44.56505 | 16.01257 | 36168 ft | 477 kts | 199° |
| 2026-04-23 12:52 | 44.50314 | 15.97857 | 36165 ft | 478 kts | 199° |
| 2026-04-23 12:52 | 44.44121 | 15.94466 | 36160 ft | 478 kts | 199° |
| 2026-04-23 12:53 | 44.37958 | 15.91097 | 36161 ft | 474 kts | 199° |
| 2026-04-23 12:53 | 44.31822 | 15.87752 | 36157 ft | 473 kts | 198° |
| 2026-04-23 12:54 | 44.25673 | 15.84408 | 36152 ft | 472 kts | 198° |
| 2026-04-23 12:54 | 44.19538 | 15.81078 | 36151 ft | 469 kts | 198° |
| 2026-04-23 12:55 | 44.13459 | 15.77788 | 36152 ft | 468 kts | 198° |
| 2026-04-23 12:55 | 44.07417 | 15.74524 | 36152 ft | 468 kts | 198° |
| 2026-04-23 12:56 | 44.01344 | 15.71250 | 36151 ft | 468 kts | 198° |
| 2026-04-23 12:56 | 43.95269 | 15.67982 | 36148 ft | 468 kts | 198° |
| 2026-04-23 12:57 | 43.89196 | 15.64723 | 36152 ft | 468 kts | 198° |
| 2026-04-23 12:57 | 43.83110 | 15.61465 | 36157 ft | 471 kts | 198° |
| 2026-04-23 12:58 | 43.76991 | 15.58196 | 36157 ft | 471 kts | 198° |
| 2026-04-23 12:58 | 43.70866 | 15.54929 | 36157 ft | 471 kts | 198° |
| 2026-04-23 12:59 | 43.64754 | 15.51677 | 36157 ft | 471 kts | 198° |
| 2026-04-23 12:59 | 43.58632 | 15.48427 | 36168 ft | 471 kts | 198° |
| 2026-04-23 13:00 | 43.52504 | 15.45182 | 36171 ft | 471 kts | 198° |
| 2026-04-23 13:00 | 43.46378 | 15.41944 | 36171 ft | 471 kts | 198° |
| 2026-04-23 13:01 | 43.40259 | 15.38716 | 36167 ft | 471 kts | 198° |
| 2026-04-23 13:01 | 43.34131 | 15.35490 | 36179 ft | 471 kts | 198° |
| 2026-04-23 13:02 | 43.28014 | 15.32278 | 36178 ft | 471 kts | 198° |
| 2026-04-23 13:02 | 43.21893 | 15.29071 | 36179 ft | 471 kts | 198° |
| 2026-04-23 13:03 | 43.15804 | 15.25888 | 36180 ft | 472 kts | 198° |
| 2026-04-23 13:03 | 43.09618 | 15.22661 | 36181 ft | 473 kts | 198° |
| 2026-04-23 13:04 | 43.03396 | 15.20092 | 36183 ft | 468 kts | 188° |
| 2026-04-23 13:04 | 42.97002 | 15.18357 | 36184 ft | 468 kts | 186° |
| 2026-04-23 13:05 | 42.90594 | 15.16791 | 36180 ft | 468 kts | 186° |
| 2026-04-23 13:05 | 42.84174 | 15.15239 | 36179 ft | 468 kts | 186° |
| 2026-04-23 13:06 | 42.74554 | 15.12882 | 36187 ft | 468 kts | 186° |
| 2026-04-23 13:07 | 42.68151 | 15.11307 | 36181 ft | 468 kts | 186° |
| 2026-04-23 13:07 | 42.62834 | 15.10001 | 36187 ft | 468 kts | 186° |
| 2026-04-23 13:08 | 42.56425 | 15.08431 | 36177 ft | 467 kts | 186° |
| 2026-04-23 13:08 | 42.50022 | 15.06866 | 36195 ft | 467 kts | 186° |
| 2026-04-23 13:09 | 42.43619 | 15.05305 | 36185 ft | 467 kts | 186° |
| 2026-04-23 13:09 | 42.37216 | 15.03747 | 36186 ft | 469 kts | 187° |
| 2026-04-23 13:10 | 42.30788 | 15.02186 | 36184 ft | 469 kts | 187° |
| 2026-04-23 13:10 | 42.24362 | 15.00627 | 36181 ft | 469 kts | 187° |
| 2026-04-23 13:11 | 42.17932 | 14.99072 | 36181 ft | 470 kts | 187° |
| 2026-04-23 13:11 | 42.11488 | 14.97517 | 36183 ft | 471 kts | 187° |
| 2026-04-23 13:12 | 42.05029 | 14.95961 | 36182 ft | 471 kts | 187° |
| 2026-04-23 13:12 | 41.98577 | 14.94411 | 36179 ft | 471 kts | 188° |
| 2026-04-23 13:13 | 41.92115 | 14.92860 | 36176 ft | 472 kts | 188° |
| 2026-04-23 13:13 | 41.85657 | 14.91313 | 36172 ft | 472 kts | 188° |
| 2026-04-23 13:14 | 41.79195 | 14.89767 | 36173 ft | 472 kts | 188° |
| 2026-04-23 13:14 | 41.72775 | 14.88237 | 36174 ft | 472 kts | 188° |
| 2026-04-23 13:15 | 41.66314 | 14.86701 | 36169 ft | 471 kts | 187° |
| 2026-04-23 13:15 | 41.59849 | 14.85167 | 36161 ft | 472 kts | 188° |
| 2026-04-23 13:16 | 41.53376 | 14.83633 | 36162 ft | 473 kts | 188° |
| 2026-04-23 13:16 | 41.46883 | 14.82097 | 36151 ft | 473 kts | 188° |
| 2026-04-23 13:17 | 41.40395 | 14.80566 | 36153 ft | 475 kts | 189° |
| 2026-04-23 13:17 | 41.33879 | 14.79032 | 36153 ft | 476 kts | 189° |
| 2026-04-23 13:18 | 41.27332 | 14.77673 | 36143 ft | 475 kts | 181° |
| 2026-04-23 13:18 | 41.20822 | 14.78511 | 36140 ft | 470 kts | 166° |
| 2026-04-23 13:19 | 41.14491 | 14.80644 | 36133 ft | 470 kts | 162° |
| 2026-04-23 13:19 | 41.08209 | 14.83016 | 36133 ft | 470 kts | 162° |
| 2026-04-23 13:20 | 41.01918 | 14.85381 | 36125 ft | 470 kts | 162° |
| 2026-04-23 13:20 | 40.95614 | 14.87704 | 36125 ft | 472 kts | 163° |
| 2026-04-23 13:21 | 40.89272 | 14.90013 | 36125 ft | 472 kts | 163° |
| 2026-04-23 13:21 | 40.82945 | 14.92308 | 36126 ft | 472 kts | 163° |
| 2026-04-23 13:22 | 40.76606 | 14.94605 | 36109 ft | 473 kts | 164° |
| 2026-04-23 13:22 | 40.70258 | 14.96902 | 36104 ft | 474 kts | 164° |
| 2026-04-23 13:23 | 40.63893 | 14.99201 | 36102 ft | 474 kts | 164° |
| 2026-04-23 13:23 | 40.57524 | 15.01496 | 36111 ft | 474 kts | 164° |
| 2026-04-23 13:24 | 40.51199 | 15.03773 | 36098 ft | 475 kts | 165° |
| 2026-04-23 13:24 | 40.44811 | 15.06066 | 36097 ft | 476 kts | 165° |
| 2026-04-23 13:25 | 40.38422 | 15.08354 | 36095 ft | 476 kts | 165° |
| 2026-04-23 13:25 | 40.32026 | 15.10643 | 36086 ft | 476 kts | 165° |
| 2026-04-23 13:26 | 40.25635 | 15.12924 | 36087 ft | 477 kts | 165° |
| 2026-04-23 13:26 | 40.19219 | 15.15209 | 36085 ft | 477 kts | 165° |
| 2026-04-23 13:27 | 40.12816 | 15.17485 | 36086 ft | 477 kts | 165° |
| 2026-04-23 13:27 | 40.06396 | 15.19763 | 36086 ft | 478 kts | 166° |
| 2026-04-23 13:28 | 39.99966 | 15.22040 | 36080 ft | 479 kts | 166° |
| 2026-04-23 13:28 | 39.93513 | 15.24321 | 35501 ft | 482 kts | 166° |
| 2026-04-23 13:28 | 39.90272 | 15.25465 | 34347 ft | 483 kts | 166° |
| 2026-04-23 13:29 | 39.87004 | 15.26618 | 32841 ft | 489 kts | 167° |
| 2026-04-23 13:29 | 39.83743 | 15.27767 | 32046 ft | 481 kts | 167° |
| 2026-04-23 13:29 | 39.80554 | 15.28892 | 31748 ft | 471 kts | 167° |
| 2026-04-23 13:29 | 39.77405 | 15.30000 | 31250 ft | 465 kts | 167° |
| 2026-04-23 13:30 | 39.74295 | 15.31100 | 30736 ft | 461 kts | 165° |
| 2026-04-23 13:30 | 39.71357 | 15.32710 | 30217 ft | 459 kts | 150° |
| 2026-04-23 13:30 | 39.68759 | 15.35108 | 29619 ft | 456 kts | 141° |
| 2026-04-23 13:30 | 39.66332 | 15.37709 | 29095 ft | 450 kts | 140° |
| 2026-04-23 13:31 | 39.63963 | 15.40324 | 28598 ft | 444 kts | 139° |
| 2026-04-23 13:31 | 39.61634 | 15.42912 | 28097 ft | 439 kts | 139° |
| 2026-04-23 13:31 | 39.59328 | 15.45476 | 27607 ft | 434 kts | 139° |
| 2026-04-23 13:31 | 39.57048 | 15.48009 | 27117 ft | 430 kts | 139° |
| 2026-04-23 13:32 | 39.54792 | 15.50515 | 26626 ft | 426 kts | 139° |
| 2026-04-23 13:32 | 39.52550 | 15.53001 | 26137 ft | 422 kts | 139° |
| 2026-04-23 13:32 | 39.50326 | 15.55465 | 25660 ft | 419 kts | 139° |
| 2026-04-23 13:32 | 39.48118 | 15.57910 | 25164 ft | 416 kts | 139° |
| 2026-04-23 13:33 | 39.45926 | 15.60335 | 24689 ft | 413 kts | 139° |
| 2026-04-23 13:33 | 39.43755 | 15.62735 | 24214 ft | 409 kts | 139° |
| 2026-04-23 13:33 | 39.41599 | 15.65117 | 23751 ft | 407 kts | 139° |
| 2026-04-23 13:33 | 39.39452 | 15.67488 | 23191 ft | 404 kts | 140° |
| 2026-04-23 13:34 | 39.37324 | 15.69834 | 22714 ft | 400 kts | 140° |
| 2026-04-23 13:34 | 39.35237 | 15.72134 | 22248 ft | 396 kts | 140° |
| 2026-04-23 13:34 | 39.33123 | 15.74460 | 21776 ft | 392 kts | 140° |
| 2026-04-23 13:34 | 39.31079 | 15.76709 | 21317 ft | 389 kts | 140° |
| 2026-04-23 13:35 | 39.29003 | 15.78990 | 20846 ft | 386 kts | 140° |
| 2026-04-23 13:35 | 39.26967 | 15.81223 | 20395 ft | 382 kts | 141° |
| 2026-04-23 13:35 | 39.24940 | 15.83439 | 19944 ft | 380 kts | 141° |
| 2026-04-23 13:35 | 39.22935 | 15.85630 | 19478 ft | 377 kts | 141° |
| 2026-04-23 13:36 | 39.20941 | 15.87811 | 19033 ft | 375 kts | 140° |
| 2026-04-23 13:36 | 39.19039 | 15.90092 | 18588 ft | 373 kts | 136° |
| 2026-04-23 13:36 | 39.17197 | 15.92439 | 18103 ft | 371 kts | 135° |
| 2026-04-23 13:36 | 39.15376 | 15.94781 | 17630 ft | 368 kts | 135° |
| 2026-04-23 13:37 | 39.13575 | 15.97105 | 17163 ft | 364 kts | 136° |
| 2026-04-23 13:37 | 39.11789 | 15.99394 | 16752 ft | 360 kts | 136° |
| 2026-04-23 13:37 | 39.10018 | 16.01657 | 16324 ft | 358 kts | 136° |
| 2026-04-23 13:37 | 39.08251 | 16.03912 | 15880 ft | 356 kts | 136° |
| 2026-04-23 13:38 | 39.06502 | 16.06142 | 15447 ft | 353 kts | 136° |
| 2026-04-23 13:38 | 39.04764 | 16.08357 | 15024 ft | 351 kts | 136° |
| 2026-04-23 13:38 | 39.03057 | 16.10532 | 14611 ft | 349 kts | 136° |
| 2026-04-23 13:38 | 39.01335 | 16.12723 | 14193 ft | 347 kts | 135° |
| 2026-04-23 13:39 | 38.99625 | 16.14898 | 13748 ft | 345 kts | 135° |
| 2026-04-23 13:39 | 38.97922 | 16.17062 | 13316 ft | 343 kts | 135° |
| 2026-04-23 13:39 | 38.96241 | 16.19198 | 12898 ft | 338 kts | 135° |
| 2026-04-23 13:39 | 38.94574 | 16.21312 | 12497 ft | 335 kts | 135° |
| 2026-04-23 13:40 | 38.92924 | 16.23404 | 12089 ft | 332 kts | 135° |
| 2026-04-23 13:40 | 38.91298 | 16.25482 | 11699 ft | 328 kts | 132° |
| 2026-04-23 13:40 | 38.89929 | 16.27787 | 11308 ft | 323 kts | 120° |
| 2026-04-23 13:40 | 38.88798 | 16.30253 | 10911 ft | 319 kts | 119° |
| 2026-04-23 13:41 | 38.87712 | 16.32722 | 10526 ft | 315 kts | 117° |
| 2026-04-23 13:41 | 38.86660 | 16.35147 | 10325 ft | 304 kts | 119° |
| 2026-04-23 13:41 | 38.85661 | 16.37468 | 10183 ft | 294 kts | 119° |
| 2026-04-23 13:41 | 38.84671 | 16.39769 | 9773 ft | 294 kts | 119° |
| 2026-04-23 13:42 | 38.83686 | 16.42057 | 9407 ft | 291 kts | 119° |
| 2026-04-23 13:42 | 38.82713 | 16.44312 | 9072 ft | 288 kts | 119° |
| 2026-04-23 13:42 | 38.81752 | 16.46540 | 8740 ft | 285 kts | 120° |
| 2026-04-23 13:42 | 38.80798 | 16.48750 | 8414 ft | 281 kts | 120° |
| 2026-04-23 13:43 | 38.79859 | 16.50925 | 8154 ft | 274 kts | 120° |
| 2026-04-23 13:43 | 38.78972 | 16.53014 | 8052 ft | 261 kts | 116° |
| 2026-04-23 13:43 | 38.78395 | 16.55177 | 7833 ft | 257 kts | 102° |
| 2026-04-23 13:43 | 38.78072 | 16.57434 | 7527 ft | 256 kts | 99° |
| 2026-04-23 13:44 | 38.77823 | 16.59657 | 7235 ft | 255 kts | 94° |
| 2026-04-23 13:44 | 38.77937 | 16.61921 | 6971 ft | 252 kts | 72° |
| 2026-04-23 13:44 | 38.78748 | 16.63863 | 6690 ft | 246 kts | 45° |
| 2026-04-23 13:44 | 38.80116 | 16.65107 | 6423 ft | 240 kts | 18° |
| 2026-04-23 13:45 | 38.81169 | 16.65503 | 6245 ft | 238 kts | 9° |
| 2026-04-23 13:45 | 38.83383 | 16.65615 | 5837 ft | 245 kts | 348° |
| 2026-04-23 13:45 | 38.84902 | 16.64681 | 5468 ft | 244 kts | 320° |
| 2026-04-23 13:45 | 38.85903 | 16.62937 | 5167 ft | 245 kts | 293° |
| 2026-04-23 13:46 | 38.86331 | 16.60817 | 4855 ft | 246 kts | 282° |
| 2026-04-23 13:46 | 38.86591 | 16.58643 | 4524 ft | 246 kts | 280° |
| 2026-04-23 13:46 | 38.86828 | 16.56485 | 4207 ft | 244 kts | 280° |
| 2026-04-23 13:46 | 38.87072 | 16.54326 | 3879 ft | 243 kts | 279° |
| 2026-04-23 13:47 | 38.87323 | 16.52182 | 3577 ft | 242 kts | 278° |
| 2026-04-23 13:47 | 38.87571 | 16.50082 | 3452 ft | 232 kts | 278° |
| 2026-04-23 13:47 | 38.87813 | 16.48107 | 3382 ft | 216 kts | 278° |
| 2026-04-23 13:47 | 38.88030 | 16.46281 | 3312 ft | 200 kts | 277° |
| 2026-04-23 13:48 | 38.88206 | 16.44547 | 3037 ft | 192 kts | 276° |
| 2026-04-23 13:48 | 38.88384 | 16.42892 | 2712 ft | 181 kts | 277° |
| 2026-04-23 13:48 | 38.88561 | 16.41390 | 2451 ft | 161 kts | 278° |
| 2026-04-23 13:48 | 38.88720 | 16.40026 | 2239 ft | 146 kts | 279° |
| 2026-04-23 13:49 | 38.88861 | 16.38789 | 2058 ft | 138 kts | 280° |
| 2026-04-23 13:49 | 38.89002 | 16.37570 | 1884 ft | 138 kts | 280° |
| 2026-04-23 13:49 | 38.89142 | 16.36356 | 1713 ft | 138 kts | 280° |
| 2026-04-23 13:49 | 38.89284 | 16.35135 | 1506 ft | 138 kts | 280° |
| 2026-04-23 13:50 | 38.89422 | 16.33943 | 1311 ft | 135 kts | 278° |
| 2026-04-23 13:50 | 38.89556 | 16.32769 | 1118 ft | 129 kts | 280° |
| 2026-04-23 13:50 | 38.89687 | 16.31631 | 951 ft | 129 kts | 279° |
| 2026-04-23 13:50 | 38.89776 | 16.30875 | 911 ft | 129 kts | 276° |
| 2026-04-23 13:51 | 38.89895 | 16.29745 | 689 ft | 125 kts | 276° |
| 2026-04-23 13:51 | 38.90022 | 16.28649 | 495 ft | 125 kts | 278° |
| 2026-04-23 13:51 | 38.90159 | 16.27544 | 303 ft | 124 kts | 275° |
| 2026-04-23 13:51 | 38.90281 | 16.26470 | 140 ft | 118 kts | 275° |
| 2026-04-23 13:52 | 38.90402 | 16.25443 | 39 ft | 113 kts | 273° |
| 2026-04-23 13:52 | 38.90492 | 16.24630 | 35 ft | 66 kts | 277° |
| 2026-04-23 13:52 | 38.90546 | 16.24184 | 30 ft | 40 kts | 278° |
| 2026-04-23 13:52 | 38.90580 | 16.23819 | 33 ft | 40 kts | 290° |
| 2026-04-23 13:53 | 38.90683 | 16.23570 | 37 ft | 30 kts | 306° |
| 2026-04-23 13:53 | 38.90774 | 16.23477 | 36 ft | 13 kts | 358° |
| 2026-04-23 13:53 | 38.90842 | 16.23556 | 35 ft | 14 kts | 83° |
| 2026-04-23 13:53 | 38.90823 | 16.23720 | 35 ft | 26 kts | 98° |
| 2026-04-23 13:54 | 38.90841 | 16.23790 | 35 ft | 8 kts | 10° |
| 2026-04-23 13:54 | 38.90896 | 16.23833 | 35 ft | 11 kts | 62° |
| 2026-04-23 13:54 | 38.90879 | 16.23941 | 33 ft | 9 kts | 124° |
| 2026-04-23 13:54 | 38.90855 | 16.24072 | 35 ft | 23 kts | 99° |
| 2026-04-23 13:55 | 38.90824 | 16.24326 | 34 ft | 33 kts | 98° |
| 2026-04-23 13:55 | 38.90810 | 16.24504 | 35 ft | 1 kts | 64° |
| 2026-04-23 13:55 | 38.90830 | 16.24512 | 35 ft | 7 kts | 12° |
| 2026-04-23 13:55 | 38.90860 | 16.24518 | 35 ft | 0 kts | 7° |